Norfolk — WDG2147 — position and weather

sailwx.info

Track history (hours):
 
Tides and Currents Weather Stations Pressure Air Temp Water Temp Dewpoint Dewpoint Depression Visibility Wind Speed Wind Dir Waves Ship Positions

Norfolk

Owner: Virginia Pilot Boat Corporation, Virginia Beach, VA. More information available from US FCC via Universal Licensing System and Coast Guard Vessel Documentation Center.

Last reported at 2017-Dec-11 15:03 UTC. Time now 2017-Dec-12 19:58 UTC.
Position N 36°54' W 076°05'.

Length 18 m; draft 1.5 m.

Type: Pilot. MMSI: 367512630.

Date/timePositionNaut miles runAvg speedWind from/ knotsBaromVisibWave heightAir tempDewpointWater temp
2017-Dec-11 15:03N 36°54' W 076°05'0 0.2
2017-Dec-11 15:00N 36°54' W 076°05'0 0.0
2017-Dec-11 14:30N 36°54' W 076°05'0 0.0
2017-Dec-11 14:00N 36°54' W 076°05'5 3.0
2017-Dec-11 12:21N 36°59' W 076°04'512.2
2017-Dec-11 11:57N 36°54' W 076°05'0 0.0
2017-Dec-11 11:27N 36°54' W 076°05'1 1.0
2017-Dec-11 10:29N 36°55' W 076°05'1 0.4
2017-Dec-11 07:51N 36°54' W 076°05'0 0.0
2017-Dec-11 06:59N 36°54' W 076°05'0 0.0
2017-Dec-11 06:28N 36°54' W 076°05'0 0.0
2017-Dec-11 05:58N 36°54' W 076°05'0 0.0
2017-Dec-11 05:30N 36°54' W 076°05'0 0.0
2017-Dec-11 04:58N 36°54' W 076°05'0 0.0
2017-Dec-11 04:24N 36°54' W 076°05'0 0.0
2017-Dec-11 00:58N 36°54' W 076°05'8 6.4
2017-Dec-10 23:45N 36°56' W 075°56'821.2
2017-Dec-10 23:23N 36°54' W 076°06'0 0.0
2017-Dec-10 20:21N 36°54' W 076°05'4 1.5
2017-Dec-10 17:59N 36°58' W 076°05'4 7.6
2017-Dec-10 17:31N 36°54' W 076°05'816.4
2017-Dec-10 17:00N 36°55' W 075°55'813.7
2017-Dec-10 16:24N 36°54' W 076°05'0 0.0
2017-Dec-10 16:00N 36°54' W 076°05'0 0.1
2017-Dec-10 15:30N 36°54' W 076°05'918.0
2017-Dec-10 15:01N 36°57' W 075°54'918.1
2017-Dec-10 14:30N 36°54' W 076°06'0 0.3
2017-Dec-10 14:00N 36°54' W 076°05'0 0.0
2017-Dec-10 13:30N 36°54' W 076°05'0 0.0
2017-Dec-10 13:00N 36°54' W 076°05'0 0.0
2017-Dec-10 12:30N 36°54' W 076°05'0 0.0
2017-Dec-10 08:19N 36°54' W 076°05'1 1.2
2017-Dec-10 07:29N 36°55' W 076°05'3 0.3
2017-Dec-09 18:59N 36°59' W 076°05'4 8.3
2017-Dec-09 18:29N 36°54' W 076°05'0 0.0
2017-Dec-09 18:00N 36°54' W 076°05'0 0.1
2017-Dec-09 17:30N 36°54' W 076°05'5 9.4
2017-Dec-09 17:00N 36°56' W 076°00'0 0.2
2017-Dec-09 16:28N 36°56' W 076°00'5 9.7
2017-Dec-09 16:00N 36°54' W 076°05'0 0.0
2017-Dec-09 15:31N 36°54' W 076°05'0 0.0
2017-Dec-09 15:00N 36°54' W 076°05'0 0.0
2017-Dec-09 14:30N 36°54' W 076°05'0 0.0
2017-Dec-09 14:01N 36°54' W 076°05'0 0.0
2017-Dec-09 13:31N 36°54' W 076°05'0 0.0
2017-Dec-09 13:01N 36°54' W 076°05'0 0.0
2017-Dec-09 12:29N 36°54' W 076°05'0 0.0
2017-Dec-09 11:01N 36°54' W 076°05'0 7.3
2017-Dec-09 11:00N 36°54' W 076°06'0 0.0
2017-Dec-09 08:17N 36°54' W 076°05'8 8.6
2017-Dec-09 07:22N 36°56' W 075°56'8 0.9
2017-Dec-08 23:04N 36°56' W 076°05'2 1.5
2017-Dec-08 22:01N 36°54' W 076°05'4 7.9
2017-Dec-08 21:27N 36°57' W 076°01'4 3.7
2017-Dec-08 20:16N 36°54' W 076°05'417.0
2017-Dec-08 20:01N 36°56' W 076°00'2 4.4
2017-Dec-08 19:30N 36°56' W 076°03'2 4.5
2017-Dec-08 19:00N 36°54' W 076°05'0 0.0
2017-Dec-08 18:30N 36°54' W 076°05'0 0.0
2017-Dec-08 18:00N 36°54' W 076°05'0 0.0
2017-Dec-08 17:30N 36°54' W 076°05'0 0.0
2017-Dec-08 17:00N 36°54' W 076°05'0 0.0
2017-Dec-08 16:30N 36°54' W 076°05'0 0.0
2017-Dec-08 16:00N 36°54' W 076°05'0 0.0
2017-Dec-08 15:30N 36°54' W 076°05'0 0.0
2017-Dec-08 15:00N 36°54' W 076°05'0 0.0
2017-Dec-08 14:30N 36°54' W 076°05'0 0.1
2017-Dec-08 14:00N 36°54' W 076°05'4 7.2
2017-Dec-08 13:30N 36°56' W 076°02'4 7.2
2017-Dec-08 13:00N 36°54' W 076°05'2 1.3
2017-Dec-08 11:28N 36°56' W 076°05'2 3.5
2017-Dec-08 10:54N 36°54' W 076°05'0 0.0
2017-Dec-08 10:29N 36°54' W 076°05'0 0.0
2017-Dec-08 10:01N 36°54' W 076°05'0 0.0
2017-Dec-08 09:29N 36°54' W 076°05'2 2.3
2017-Dec-08 08:43N 36°56' W 076°04'2 3.2
2017-Dec-08 08:10N 36°54' W 076°05'318.5
2017-Dec-08 07:59N 36°56' W 076°02'3 4.6
2017-Dec-08 07:26N 36°55' W 076°05'1 2.3
2017-Dec-08 06:59N 36°54' W 076°05'0 0.0
2017-Dec-08 06:16N 36°54' W 076°05'0 0.0
2017-Dec-08 03:46N 36°54' W 076°05'0 0.0
2017-Dec-08 03:29N 36°54' W 076°05'0 0.2
2017-Dec-08 02:24N 36°55' W 076°06'0 0.0
2017-Dec-07 21:10N 36°54' W 076°05'0 0.0
2017-Dec-07 21:00N 36°54' W 076°05'5 1.5
2017-Dec-07 17:52N 36°59' W 076°05'5 4.2
2017-Dec-07 16:46N 36°54' W 076°05'0 0.0
2017-Dec-07 16:30N 36°54' W 076°05'0 0.0
2017-Dec-07 16:00N 36°54' W 076°05'0 0.0
2017-Dec-07 15:30N 36°54' W 076°05'0 0.0
2017-Dec-07 15:00N 36°54' W 076°05'0 0.0
2017-Dec-07 14:30N 36°54' W 076°05'0 0.0
2017-Dec-07 14:00N 36°54' W 076°05'0 0.0
2017-Dec-07 13:30N 36°54' W 076°05'0 0.0
2017-Dec-07 13:00N 36°54' W 076°05'0 0.0
2017-Dec-07 12:30N 36°54' W 076°05'1 1.8
2017-Dec-07 11:58N 36°55' W 076°05'1 0.7
2017-Dec-07 10:40N 36°54' W 076°05'0 0.0
2017-Dec-07 10:21N 36°54' W 076°05'0 0.0
2017-Dec-07 09:57N 36°54' W 076°05'0 0.1
2017-Dec-07 09:30N 36°54' W 076°05'1 1.4
2017-Dec-07 08:44N 36°55' W 076°05'1 1.5
2017-Dec-07 07:58N 36°54' W 076°05'810.9
2017-Dec-07 07:15N 36°56' W 075°56'8 2.1
2017-Dec-07 03:33N 36°54' W 076°05'116.4
2017-Dec-07 03:29N 36°55' W 076°05'0 0.2
2017-Dec-07 02:46N 36°55' W 076°05'1 0.3
2017-Dec-06 23:59N 36°54' W 076°05'3 0.9
2017-Dec-06 21:05N 36°57' W 076°05'121.2
2017-Dec-06 21:00N 36°55' W 076°05'  
2017-Dec-04 08:42N 36°54' W 076°05'418.2
2017-Dec-04 08:28N 36°57' W 076°01'5 9.6
2017-Dec-04 07:58N 36°55' W 075°55'8 1.3
2017-Dec-04 01:49N 36°54' W 076°05'2 4.4
2017-Dec-04 01:21N 36°56' W 076°04'2 3.0
2017-Dec-04 00:41N 36°54' W 076°05'2 1.1
2017-Dec-03 22:58N 36°56' W 076°05'2 2.3
2017-Dec-03 22:09N 36°54' W 076°05'317.8
2017-Dec-03 21:58N 36°56' W 076°02'1 1.6
2017-Dec-03 21:30N 36°56' W 076°01'4 7.9
2017-Dec-03 21:00N 36°54' W 076°05'0 0.0
2017-Dec-03 20:22N 36°54' W 076°05'0 0.0
2017-Dec-03 18:25N 36°54' W 076°05'614.4
2017-Dec-03 17:59N 36°55' W 075°58'1 2.2
2017-Dec-03 17:30N 36°56' W 075°57'714.0
2017-Dec-03 17:00N 36°54' W 076°05'0 0.1
2017-Dec-03 16:31N 36°54' W 076°05'4 7.8
2017-Dec-03 16:00N 36°56' W 076°01'2 4.0
2017-Dec-03 15:30N 36°56' W 076°03'2 4.6
2017-Dec-03 15:00N 36°54' W 076°05'0 0.0
2017-Dec-03 14:25N 36°54' W 076°05'0 0.0
2017-Dec-03 14:00N 36°54' W 076°05'0 0.0
2017-Dec-03 13:30N 36°54' W 076°05'0 0.0
2017-Dec-03 13:00N 36°54' W 076°05'0 0.0
2017-Dec-03 12:30N 36°54' W 076°05'0 0.0
2017-Dec-03 10:15N 36°54' W 076°05'920.1
2017-Dec-03 09:49N 36°55' W 075°55'919.4
2017-Dec-03 09:22N 36°54' W 076°06'917.3
2017-Dec-03 08:52N 36°55' W 075°55'815.8
2017-Dec-03 08:21N 36°55' W 076°05'1 0.7
2017-Dec-03 06:44N 36°54' W 076°05'513.8
2017-Dec-03 06:24N 36°57' W 076°01'5 3.1
2017-Dec-03 04:55N 36°54' W 076°05'0 0.0
2017-Dec-03 04:12N 36°54' W 076°05'0 0.0
2017-Dec-03 03:03N 36°54' W 076°05'113.9
2017-Dec-03 02:58N 36°56' W 076°05'1 1.6
2017-Dec-03 02:12N 36°54' W 076°06'0 0.0
2017-Dec-03 00:30N 36°54' W 076°06'815.5
2017-Dec-03 00:00N 36°56' W 075°56'8 9.1
2017-Dec-02 23:08N 36°54' W 076°05'6 4.3
2017-Dec-02 21:45N 36°56' W 075°58'1 3.9
2017-Dec-02 21:26N 36°56' W 075°57'716.7
2017-Dec-02 21:00N 36°54' W 076°05'0 0.2
2017-Dec-02 20:30N 36°54' W 076°06'917.9
2017-Dec-02 19:59N 36°54' W 075°54'611.3
2017-Dec-02 19:28N 36°56' W 076°01'4 8.5
2017-Dec-02 19:00N 36°54' W 076°05'0 0.1
2017-Dec-02 18:30N 36°54' W 076°05'0 0.0
2017-Dec-02 18:00N 36°54' W 076°05'0 0.0
2017-Dec-02 17:29N 36°54' W 076°05'0 0.0
2017-Dec-02 17:00N 36°54' W 076°05'0 0.0
2017-Dec-02 16:30N 36°54' W 076°05'0 0.0
2017-Dec-02 15:59N 36°54' W 076°05'0 0.0
2017-Dec-02 15:29N 36°54' W 076°05'0 0.0
2017-Dec-02 15:00N 36°54' W 076°05'0 0.0
2017-Dec-02 14:30N 36°54' W 076°05'0 0.0
2017-Dec-02 14:00N 36°54' W 076°05'0 0.0
2017-Dec-02 13:30N 36°54' W 076°05'0 0.0
2017-Dec-02 12:58N 36°54' W 076°05'0 0.0
2017-Dec-02 12:30N 36°54' W 076°05'0 0.0
2017-Dec-02 11:12N 36°54' W 076°05'3 1.6
2017-Dec-02 09:38N 36°57' W 076°05'319.0
2017-Dec-02 09:30N 36°54' W 076°06'0 0.2
2017-Dec-02 08:59N 36°54' W 076°05'2 3.7
2017-Dec-02 08:30N 36°56' W 076°04'0 0.6
2017-Dec-02 07:41N 36°56' W 076°04'1 1.6
2017-Dec-02 06:51N 36°54' W 076°05'2 1.1
2017-Dec-02 05:10N 36°56' W 076°05'2 0.4
2017-Dec-02 00:52N 36°54' W 076°05'3 7.4
2017-Dec-02 00:23N 36°56' W 076°02'3 0.6
2017-Dec-01 18:40N 36°54' W 076°05'0 0.1
2017-Dec-01 18:27N 36°54' W 076°05'0 0.0
2017-Dec-01 18:00N 36°54' W 076°05'0 0.0
2017-Dec-01 17:30N 36°54' W 076°05'610.8
2017-Dec-01 16:58N 36°57' W 075°59'510.9
2017-Dec-01 16:30N 36°55' W 076°05'1 2.1
2017-Dec-01 16:00N 36°54' W 076°05'0 0.0
2017-Dec-01 15:30N 36°54' W 076°05'  
Track history (hours):
 
Tides and Currents Weather Stations Pressure Air Temp Water Temp Dewpoint Dewpoint Depression Visibility Wind Speed Wind Dir Waves Ship Positions

Norfolk

Owner: Virginia Pilot Boat Corporation, Virginia Beach, VA. More information available from US FCC via Universal Licensing System and Coast Guard Vessel Documentation Center.

Last reported at 2017-Dec-11 15:03 UTC. Time now 2017-Dec-12 19:58 UTC.
Position N 36°54' W 076°05'.

Length 18 m; draft 1.5 m.

Type: Pilot. MMSI: 367512630.

Date/timePositionNaut miles runAvg speedWind from/ knotsBaromVisibWave heightAir tempDewpointWater temp
2017-Dec-11 15:03N 36°54' W 076°05'0 0.2
2017-Dec-11 15:00N 36°54' W 076°05'0 0.0
2017-Dec-11 14:30N 36°54' W 076°05'0 0.0
2017-Dec-11 14:00N 36°54' W 076°05'5 3.0
2017-Dec-11 12:21N 36°59' W 076°04'512.2
2017-Dec-11 11:57N 36°54' W 076°05'0 0.0
2017-Dec-11 11:27N 36°54' W 076°05'1 1.0
2017-Dec-11 10:29N 36°55' W 076°05'1 0.4
2017-Dec-11 07:51N 36°54' W 076°05'0 0.0
2017-Dec-11 06:59N 36°54' W 076°05'0 0.0
2017-Dec-11 06:28N 36°54' W 076°05'0 0.0
2017-Dec-11 05:58N 36°54' W 076°05'0 0.0
2017-Dec-11 05:30N 36°54' W 076°05'0 0.0
2017-Dec-11 04:58N 36°54' W 076°05'0 0.0
2017-Dec-11 04:24N 36°54' W 076°05'0 0.0
2017-Dec-11 00:58N 36°54' W 076°05'8 6.4
2017-Dec-10 23:45N 36°56' W 075°56'821.2
2017-Dec-10 23:23N 36°54' W 076°06'0 0.0
2017-Dec-10 20:21N 36°54' W 076°05'4 1.5
2017-Dec-10 17:59N 36°58' W 076°05'4 7.6
2017-Dec-10 17:31N 36°54' W 076°05'816.4
2017-Dec-10 17:00N 36°55' W 075°55'813.7
2017-Dec-10 16:24N 36°54' W 076°05'0 0.0
2017-Dec-10 16:00N 36°54' W 076°05'0 0.1
2017-Dec-10 15:30N 36°54' W 076°05'918.0
2017-Dec-10 15:01N 36°57' W 075°54'918.1
2017-Dec-10 14:30N 36°54' W 076°06'0 0.3
2017-Dec-10 14:00N 36°54' W 076°05'0 0.0
2017-Dec-10 13:30N 36°54' W 076°05'0 0.0
2017-Dec-10 13:00N 36°54' W 076°05'0 0.0
2017-Dec-10 12:30N 36°54' W 076°05'0 0.0
2017-Dec-10 08:19N 36°54' W 076°05'1 1.2
2017-Dec-10 07:29N 36°55' W 076°05'3 0.3
2017-Dec-09 18:59N 36°59' W 076°05'4 8.3
2017-Dec-09 18:29N 36°54' W 076°05'0 0.0
2017-Dec-09 18:00N 36°54' W 076°05'0 0.1
2017-Dec-09 17:30N 36°54' W 076°05'5 9.4
2017-Dec-09 17:00N 36°56' W 076°00'0 0.2
2017-Dec-09 16:28N 36°56' W 076°00'5 9.7
2017-Dec-09 16:00N 36°54' W 076°05'0 0.0
2017-Dec-09 15:31N 36°54' W 076°05'0 0.0
2017-Dec-09 15:00N 36°54' W 076°05'0 0.0
2017-Dec-09 14:30N 36°54' W 076°05'0 0.0
2017-Dec-09 14:01N 36°54' W 076°05'0 0.0
2017-Dec-09 13:31N 36°54' W 076°05'0 0.0
2017-Dec-09 13:01N 36°54' W 076°05'0 0.0
2017-Dec-09 12:29N 36°54' W 076°05'0 0.0
2017-Dec-09 11:01N 36°54' W 076°05'0 7.3
2017-Dec-09 11:00N 36°54' W 076°06'0 0.0
2017-Dec-09 08:17N 36°54' W 076°05'8 8.6
2017-Dec-09 07:22N 36°56' W 075°56'8 0.9
2017-Dec-08 23:04N 36°56' W 076°05'2 1.5
2017-Dec-08 22:01N 36°54' W 076°05'4 7.9
2017-Dec-08 21:27N 36°57' W 076°01'4 3.7
2017-Dec-08 20:16N 36°54' W 076°05'417.0
2017-Dec-08 20:01N 36°56' W 076°00'2 4.4
2017-Dec-08 19:30N 36°56' W 076°03'2 4.5
2017-Dec-08 19:00N 36°54' W 076°05'0 0.0
2017-Dec-08 18:30N 36°54' W 076°05'0 0.0
2017-Dec-08 18:00N 36°54' W 076°05'0 0.0
2017-Dec-08 17:30N 36°54' W 076°05'0 0.0
2017-Dec-08 17:00N 36°54' W 076°05'0 0.0
2017-Dec-08 16:30N 36°54' W 076°05'0 0.0
2017-Dec-08 16:00N 36°54' W 076°05'0 0.0
2017-Dec-08 15:30N 36°54' W 076°05'0 0.0
2017-Dec-08 15:00N 36°54' W 076°05'0 0.0
2017-Dec-08 14:30N 36°54' W 076°05'0 0.1
2017-Dec-08 14:00N 36°54' W 076°05'4 7.2
2017-Dec-08 13:30N 36°56' W 076°02'4 7.2
2017-Dec-08 13:00N 36°54' W 076°05'2 1.3
2017-Dec-08 11:28N 36°56' W 076°05'2 3.5
2017-Dec-08 10:54N 36°54' W 076°05'0 0.0
2017-Dec-08 10:29N 36°54' W 076°05'0 0.0
2017-Dec-08 10:01N 36°54' W 076°05'0 0.0
2017-Dec-08 09:29N 36°54' W 076°05'2 2.3
2017-Dec-08 08:43N 36°56' W 076°04'2 3.2
2017-Dec-08 08:10N 36°54' W 076°05'318.5
2017-Dec-08 07:59N 36°56' W 076°02'3 4.6
2017-Dec-08 07:26N 36°55' W 076°05'1 2.3
2017-Dec-08 06:59N 36°54' W 076°05'0 0.0
2017-Dec-08 06:16N 36°54' W 076°05'0 0.0
2017-Dec-08 03:46N 36°54' W 076°05'0 0.0
2017-Dec-08 03:29N 36°54' W 076°05'0 0.2
2017-Dec-08 02:24N 36°55' W 076°06'0 0.0
2017-Dec-07 21:10N 36°54' W 076°05'0 0.0
2017-Dec-07 21:00N 36°54' W 076°05'5 1.5
2017-Dec-07 17:52N 36°59' W 076°05'5 4.2
2017-Dec-07 16:46N 36°54' W 076°05'0 0.0
2017-Dec-07 16:30N 36°54' W 076°05'0 0.0
2017-Dec-07 16:00N 36°54' W 076°05'0 0.0
2017-Dec-07 15:30N 36°54' W 076°05'0 0.0
2017-Dec-07 15:00N 36°54' W 076°05'0 0.0
2017-Dec-07 14:30N 36°54' W 076°05'0 0.0
2017-Dec-07 14:00N 36°54' W 076°05'0 0.0
2017-Dec-07 13:30N 36°54' W 076°05'0 0.0
2017-Dec-07 13:00N 36°54' W 076°05'0 0.0
2017-Dec-07 12:30N 36°54' W 076°05'1 1.8
2017-Dec-07 11:58N 36°55' W 076°05'1 0.7
2017-Dec-07 10:40N 36°54' W 076°05'0 0.0
2017-Dec-07 10:21N 36°54' W 076°05'0 0.0
2017-Dec-07 09:57N 36°54' W 076°05'0 0.1
2017-Dec-07 09:30N 36°54' W 076°05'1 1.4
2017-Dec-07 08:44N 36°55' W 076°05'1 1.5
2017-Dec-07 07:58N 36°54' W 076°05'810.9
2017-Dec-07 07:15N 36°56' W 075°56'8 2.1
2017-Dec-07 03:33N 36°54' W 076°05'116.4
2017-Dec-07 03:29N 36°55' W 076°05'0 0.2
2017-Dec-07 02:46N 36°55' W 076°05'1 0.3
2017-Dec-06 23:59N 36°54' W 076°05'3 0.9
2017-Dec-06 21:05N 36°57' W 076°05'121.2
2017-Dec-06 21:00N 36°55' W 076°05'  
2017-Dec-04 08:42N 36°54' W 076°05'418.2
2017-Dec-04 08:28N 36°57' W 076°01'5 9.6
2017-Dec-04 07:58N 36°55' W 075°55'8 1.3
2017-Dec-04 01:49N 36°54' W 076°05'2 4.4
2017-Dec-04 01:21N 36°56' W 076°04'2 3.0
2017-Dec-04 00:41N 36°54' W 076°05'2 1.1
2017-Dec-03 22:58N 36°56' W 076°05'2 2.3
2017-Dec-03 22:09N 36°54' W 076°05'317.8
2017-Dec-03 21:58N 36°56' W 076°02'1 1.6
2017-Dec-03 21:30N 36°56' W 076°01'4 7.9
2017-Dec-03 21:00N 36°54' W 076°05'0 0.0
2017-Dec-03 20:22N 36°54' W 076°05'0 0.0
2017-Dec-03 18:25N 36°54' W 076°05'614.4
2017-Dec-03 17:59N 36°55' W 075°58'1 2.2
2017-Dec-03 17:30N 36°56' W 075°57'714.0
2017-Dec-03 17:00N 36°54' W 076°05'0 0.1
2017-Dec-03 16:31N 36°54' W 076°05'4 7.8
2017-Dec-03 16:00N 36°56' W 076°01'2 4.0
2017-Dec-03 15:30N 36°56' W 076°03'2 4.6
2017-Dec-03 15:00N 36°54' W 076°05'0 0.0
2017-Dec-03 14:25N 36°54' W 076°05'0 0.0
2017-Dec-03 14:00N 36°54' W 076°05'0 0.0
2017-Dec-03 13:30N 36°54' W 076°05'0 0.0
2017-Dec-03 13:00N 36°54' W 076°05'0 0.0
2017-Dec-03 12:30N 36°54' W 076°05'0 0.0
2017-Dec-03 10:15N 36°54' W 076°05'920.1
2017-Dec-03 09:49N 36°55' W 075°55'919.4
2017-Dec-03 09:22N 36°54' W 076°06'917.3
2017-Dec-03 08:52N 36°55' W 075°55'815.8
2017-Dec-03 08:21N 36°55' W 076°05'1 0.7
2017-Dec-03 06:44N 36°54' W 076°05'513.8
2017-Dec-03 06:24N 36°57' W 076°01'5 3.1
2017-Dec-03 04:55N 36°54' W 076°05'0 0.0
2017-Dec-03 04:12N 36°54' W 076°05'0 0.0
2017-Dec-03 03:03N 36°54' W 076°05'113.9
2017-Dec-03 02:58N 36°56' W 076°05'1 1.6
2017-Dec-03 02:12N 36°54' W 076°06'0 0.0
2017-Dec-03 00:30N 36°54' W 076°06'815.5
2017-Dec-03 00:00N 36°56' W 075°56'8 9.1
2017-Dec-02 23:08N 36°54' W 076°05'6 4.3
2017-Dec-02 21:45N 36°56' W 075°58'1 3.9
2017-Dec-02 21:26N 36°56' W 075°57'716.7
2017-Dec-02 21:00N 36°54' W 076°05'0 0.2
2017-Dec-02 20:30N 36°54' W 076°06'917.9
2017-Dec-02 19:59N 36°54' W 075°54'611.3
2017-Dec-02 19:28N 36°56' W 076°01'4 8.5
2017-Dec-02 19:00N 36°54' W 076°05'0 0.1
2017-Dec-02 18:30N 36°54' W 076°05'0 0.0
2017-Dec-02 18:00N 36°54' W 076°05'0 0.0
2017-Dec-02 17:29N 36°54' W 076°05'0 0.0
2017-Dec-02 17:00N 36°54' W 076°05'0 0.0
2017-Dec-02 16:30N 36°54' W 076°05'0 0.0
2017-Dec-02 15:59N 36°54' W 076°05'0 0.0
2017-Dec-02 15:29N 36°54' W 076°05'0 0.0
2017-Dec-02 15:00N 36°54' W 076°05'0 0.0
2017-Dec-02 14:30N 36°54' W 076°05'0 0.0
2017-Dec-02 14:00N 36°54' W 076°05'0 0.0
2017-Dec-02 13:30N 36°54' W 076°05'0 0.0
2017-Dec-02 12:58N 36°54' W 076°05'0 0.0
2017-Dec-02 12:30N 36°54' W 076°05'0 0.0
2017-Dec-02 11:12N 36°54' W 076°05'3 1.6
2017-Dec-02 09:38N 36°57' W 076°05'319.0
2017-Dec-02 09:30N 36°54' W 076°06'0 0.2
2017-Dec-02 08:59N 36°54' W 076°05'2 3.7
2017-Dec-02 08:30N 36°56' W 076°04'0 0.6
2017-Dec-02 07:41N 36°56' W 076°04'1 1.6
2017-Dec-02 06:51N 36°54' W 076°05'2 1.1
2017-Dec-02 05:10N 36°56' W 076°05'2 0.4
2017-Dec-02 00:52N 36°54' W 076°05'3 7.4
2017-Dec-02 00:23N 36°56' W 076°02'3 0.6
2017-Dec-01 18:40N 36°54' W 076°05'0 0.1
2017-Dec-01 18:27N 36°54' W 076°05'0 0.0
2017-Dec-01 18:00N 36°54' W 076°05'0 0.0
2017-Dec-01 17:30N 36°54' W 076°05'610.8
2017-Dec-01 16:58N 36°57' W 075°59'510.9
2017-Dec-01 16:30N 36°55' W 076°05'1 2.1
2017-Dec-01 16:00N 36°54' W 076°05'0 0.0
2017-Dec-01 15:30N 36°54' W 076°05'  

Dump ship's entire track history